Time;durP1;ratioP1;P1;durP2;ratioP2;P2;SDS_P1;SDS_P2;PMS_P1;PMS_P2;Temp;Humidity;BMP_temperature;BMP_pressure;BME280_temperature;BME280_humidity;BME280_pressure;Samples;Min_cycle;Max_cycle;Signal;HPM_P1;HPM_P2
2022/04/20 00:01:12;;;;;;;78.20;16.13;;;1.20;99.90;;;;;;5030957;28;20056;-48
2022/04/20 00:03:40;;;;;;;101.75;16.17;;;1.20;99.90;;;;;;5030817;28;20033;-51
2022/04/20 00:06:06;;;;;;;61.60;13.18;;;1.20;99.90;;;;;;5031994;28;20036;-49
2022/04/20 00:08:33;;;;;;;218.30;18.85;;;1.20;99.90;;;;;;5034318;28;20034;-49
2022/04/20 00:10:59;;;;;;;308.00;21.05;;;1.20;99.90;;;;;;5034181;28;20087;-50
2022/04/20 00:13:25;;;;;;;217.75;20.48;;;1.10;99.90;;;;;;5032709;28;20064;-56
2022/04/20 00:15:51;;;;;;;148.73;18.05;;;1.00;99.90;;;;;;5034199;28;20054;-53
2022/04/20 00:18:17;;;;;;;257.30;21.13;;;1.00;99.90;;;;;;5034087;28;20034;-55
2022/04/20 00:20:43;;;;;;;565.60;39.10;;;1.00;99.90;;;;;;5032915;28;20361;-55
2022/04/20 00:23:08;;;;;;;361.52;26.38;;;0.90;99.90;;;;;;5033910;28;20026;-57
2022/04/20 00:25:34;;;;;;;529.10;29.73;;;0.90;99.90;;;;;;5034106;28;20649;-54
2022/04/20 00:28:00;;;;;;;465.02;27.02;;;0.90;99.90;;;;;;5034416;28;20033;-55
2022/04/20 00:30:26;;;;;;;588.33;33.55;;;0.90;99.90;;;;;;5033848;28;20103;-56
2022/04/20 00:32:51;;;;;;;430.05;23.92;;;0.80;99.90;;;;;;5033937;28;20048;-56
2022/04/20 00:35:17;;;;;;;295.55;21.33;;;0.80;99.90;;;;;;5033803;28;20485;-49
2022/04/20 00:37:43;;;;;;;377.80;30.13;;;0.80;99.90;;;;;;5033904;28;20021;-55
2022/04/20 00:40:12;;;;;;;560.92;31.50;;;0.90;99.90;;;;;;5033808;28;20028;-55
2022/04/20 00:42:40;;;;;;;418.98;25.25;;;0.80;99.90;;;;;;5033758;28;20392;-54
2022/04/20 00:45:08;;;;;;;649.80;41.10;;;0.60;99.90;;;;;;5033911;28;20037;-53
2022/04/20 00:47:37;;;;;;;528.53;34.13;;;0.60;99.90;;;;;;5033615;28;20034;-55
2022/04/20 00:50:04;;;;;;;400.10;26.67;;;0.70;99.90;;;;;;5033690;28;20026;-56
2022/04/20 00:52:29;;;;;;;338.27;24.92;;;0.70;99.90;;;;;;5033540;28;20041;-56
2022/04/20 00:54:55;;;;;;;449.17;28.25;;;0.70;99.90;;;;;;5032309;28;20423;-53
2022/04/20 00:57:20;;;;;;;389.05;27.33;;;0.60;99.90;;;;;;5032000;28;20026;-54
2022/04/20 00:59:48;;;;;;;492.50;42.03;;;0.60;99.90;;;;;;5033599;28;20096;-57
2022/04/20 01:02:14;;;;;;;368.60;23.65;;;0.60;99.90;;;;;;5033246;28;20037;-53
2022/04/20 01:04:40;;;;;;;314.25;23.30;;;0.60;99.90;;;;;;5033559;28;20029;-56
2022/04/20 01:07:13;;;;;;;336.02;29.13;;;0.50;99.90;;;;;;5033118;28;20472;-55
2022/04/20 01:09:40;;;;;;;157.68;20.65;;;0.60;99.90;;;;;;5033227;28;20022;-56
2022/04/20 01:12:06;;;;;;;523.70;33.60;;;0.50;99.90;;;;;;5033260;28;20038;-53
2022/04/20 01:14:32;;;;;;;278.95;22.25;;;0.50;99.90;;;;;;5032952;28;20369;-54
2022/04/20 01:16:58;;;;;;;484.73;31.23;;;0.50;99.90;;;;;;5032780;28;20033;-56
2022/04/20 01:19:33;;;;;;;390.42;23.73;;;0.50;99.90;;;;;;5032588;28;20040;-54
2022/04/20 01:22:01;;;;;;;448.85;25.00;;;0.50;99.90;;;;;;5033067;28;20021;-56
2022/04/20 01:24:27;;;;;;;519.88;25.17;;;0.50;99.90;;;;;;5032775;28;20029;-54
2022/04/20 01:26:52;;;;;;;606.72;29.50;;;0.30;99.90;;;;;;5033040;28;20104;-57
2022/04/20 01:29:19;;;;;;;238.93;20.60;;;0.10;99.90;;;;;;5032671;28;20053;-55
2022/04/20 01:31:44;;;;;;;373.20;22.90;;;0.10;99.90;;;;;;5032967;28;20099;-53
2022/04/20 01:34:10;;;;;;;344.35;28.52;;;0.00;99.90;;;;;;5032760;28;20030;-55
2022/04/20 01:36:36;;;;;;;152.57;19.48;;;-0.10;99.90;;;;;;5031368;28;20060;-55
2022/04/20 01:39:02;;;;;;;243.25;19.05;;;0.00;99.90;;;;;;5032631;28;20033;-55
2022/04/20 01:41:28;;;;;;;123.40;17.70;;;0.00;99.90;;;;;;5032678;28;20096;-53
2022/04/20 01:43:53;;;;;;;107.78;14.93;;;0.00;99.90;;;;;;5032306;28;20029;-55
2022/04/20 01:46:19;;;;;;;16.02;14.32;;;-0.10;99.90;;;;;;5031878;28;20480;-54
2022/04/20 01:48:44;;;;;;;15.65;14.05;;;0.00;99.90;;;;;;5031864;28;20018;-54
2022/04/20 01:53:54;;;;;;;24.60;15.77;;;0.00;99.90;;;;;;5032199;28;20087;-56
2022/04/20 01:56:20;;;;;;;36.83;15.55;;;0.10;99.90;;;;;;5031794;28;20030;-55
2022/04/20 01:58:46;;;;;;;64.57;14.35;;;0.20;99.90;;;;;;5031601;28;20065;-53
2022/04/20 02:03:56;;;;;;;145.40;17.75;;;0.30;99.90;;;;;;5031575;28;20036;-57
2022/04/20 02:06:21;;;;;;;65.10;16.25;;;0.30;99.90;;;;;;5031611;28;20473;-56
2022/04/20 02:08:47;;;;;;;35.05;11.65;;;0.40;99.90;;;;;;5031923;28;20029;-57
2022/04/20 02:11:12;;;;;;;75.60;13.00;;;0.50;99.90;;;;;;5030824;28;20112;-57
2022/04/20 02:13:39;;;;;;;92.75;13.52;;;0.60;99.90;;;;;;5031537;28;20021;-56
2022/04/20 02:16:05;;;;;;;228.70;19.17;;;0.50;99.90;;;;;;5030677;28;20071;-53
2022/04/20 02:18:31;;;;;;;53.00;13.55;;;0.60;99.90;;;;;;5030630;28;20061;-53
2022/04/20 02:20:56;;;;;;;24.77;12.27;;;0.60;99.90;;;;;;5030282;28;20045;-54
2022/04/20 02:23:22;;;;;;;22.20;12.00;;;0.70;99.90;;;;;;5031834;28;20029;-56
2022/04/20 02:25:48;;;;;;;89.97;14.07;;;0.80;99.90;;;;;;5032022;28;20511;-56
2022/04/20 02:28:13;;;;;;;39.30;13.02;;;0.70;99.90;;;;;;5031590;28;20104;-56
2022/04/20 02:30:39;;;;;;;147.57;14.32;;;0.70;99.90;;;;;;5030640;28;20045;-53
2022/04/20 02:33:05;;;;;;;94.70;13.50;;;0.60;99.90;;;;;;5031590;28;20017;-56
2022/04/20 02:35:31;;;;;;;169.35;18.40;;;0.50;99.90;;;;;;5031802;28;20017;-52
2022/04/20 02:37:59;;;;;;;211.23;18.73;;;0.50;99.90;;;;;;5031960;28;20044;-53
2022/04/20 02:40:24;;;;;;;206.13;19.58;;;0.40;99.90;;;;;;5031584;28;20178;-55
2022/04/20 02:42:50;;;;;;;276.30;28.02;;;0.40;99.90;;;;;;5031706;28;20112;-52
2022/04/20 02:45:16;;;;;;;96.93;17.88;;;0.30;99.90;;;;;;5031483;28;20030;-55
2022/04/20 02:47:43;;;;;;;259.10;25.13;;;0.30;99.90;;;;;;5031437;28;20033;-55
2022/04/20 02:50:08;;;;;;;166.63;17.73;;;0.20;99.90;;;;;;5031495;28;20037;-50
2022/04/20 02:52:34;;;;;;;75.35;17.00;;;0.20;99.90;;;;;;5031604;28;20018;-54
2022/04/20 02:55:00;;;;;;;22.67;15.85;;;0.30;99.90;;;;;;5031581;28;20045;-55
2022/04/20 02:57:26;;;;;;;161.57;19.73;;;0.40;99.90;;;;;;5031446;28;20030;-54
2022/04/20 02:59:52;;;;;;;30.00;15.38;;;0.30;99.90;;;;;;5030165;28;20492;-52
2022/04/20 03:02:17;;;;;;;41.85;15.32;;;0.30;99.90;;;;;;5031202;28;20037;-52
2022/04/20 03:04:43;;;;;;;134.77;18.38;;;0.40;99.90;;;;;;5031853;28;20010;-54
2022/04/20 03:07:09;;;;;;;263.75;21.15;;;0.40;99.90;;;;;;5031249;28;20030;-55
2022/04/20 03:09:35;;;;;;;40.53;16.17;;;0.30;99.90;;;;;;5031372;28;20055;-53
2022/04/20 03:12:01;;;;;;;60.10;14.68;;;0.30;99.90;;;;;;5031400;28;20076;-54
2022/04/20 03:14:26;;;;;;;156.07;18.17;;;0.40;99.90;;;;;;5031096;28;20500;-52
2022/04/20 03:16:52;;;;;;;127.03;17.63;;;0.40;99.90;;;;;;5031269;28;20025;-52
2022/04/20 03:19:17;;;;;;;313.17;20.20;;;0.40;99.90;;;;;;5031113;28;20052;-54
2022/04/20 03:21:43;;;;;;;498.70;30.40;;;0.30;99.90;;;;;;5031344;28;20021;-54
2022/04/20 03:24:09;;;;;;;466.83;37.72;;;0.20;99.90;;;;;;5031178;28;20032;-57
2022/04/20 03:26:34;;;;;;;195.15;22.08;;;0.20;99.90;;;;;;5031296;28;20061;-54
2022/04/20 03:29:00;;;;;;;128.75;20.60;;;0.10;99.90;;;;;;5031161;28;20360;-53
2022/04/20 03:31:26;;;;;;;302.10;23.35;;;0.20;99.90;;;;;;5031044;28;20033;-50
2022/04/20 03:33:52;;;;;;;118.03;19.45;;;0.20;99.90;;;;;;5031053;28;20025;-53
2022/04/20 03:36:18;;;;;;;465.65;31.13;;;0.20;99.90;;;;;;5030895;28;20449;-52
2022/04/20 03:38:43;;;;;;;336.98;24.02;;;0.10;99.90;;;;;;5029855;28;20032;-52
2022/04/20 03:41:09;;;;;;;849.40;44.33;;;0.10;99.90;;;;;;5031284;28;20025;-51
2022/04/20 03:43:35;;;;;;;178.05;20.08;;;0.00;99.90;;;;;;5033804;28;20030;-52
2022/04/20 03:46:00;;;;;;;364.98;24.70;;;-0.10;99.90;;;;;;5033450;28;20546;-56
2022/04/20 03:48:26;;;;;;;532.88;30.40;;;-0.10;99.90;;;;;;5034049;28;20021;-50
2022/04/20 03:50:52;;;;;;;589.38;31.17;;;0.00;99.90;;;;;;5034176;28;20477;-51
2022/04/20 03:53:18;;;;;;;621.67;38.00;;;0.00;99.90;;;;;;5034026;28;20159;-50
2022/04/20 03:55:44;;;;;;;562.90;35.28;;;0.00;99.90;;;;;;5034176;28;20031;-52
2022/04/20 03:58:10;;;;;;;632.22;37.45;;;0.00;99.90;;;;;;5034151;28;20492;-50
2022/04/20 04:00:36;;;;;;;611.75;34.60;;;0.00;99.90;;;;;;5034457;28;20331;-52
2022/04/20 04:03:01;;;;;;;696.53;34.65;;;0.00;99.90;;;;;;5034692;28;20087;-48
2022/04/20 04:05:27;;;;;;;212.50;20.13;;;-0.10;99.90;;;;;;5034287;28;20031;-51
2022/04/20 04:07:53;;;;;;;467.00;31.00;;;-0.10;99.90;;;;;;5034571;28;20057;-50
2022/04/20 04:10:18;;;;;;;628.35;34.20;;;0.00;99.90;;;;;;5034290;28;20022;-49
2022/04/20 04:12:44;;;;;;;787.53;42.35;;;-0.10;99.90;;;;;;5034300;28;20421;-50
2022/04/20 04:15:10;;;;;;;122.72;18.85;;;-0.20;99.90;;;;;;5033736;28;20607;-54
2022/04/20 04:17:36;;;;;;;776.97;38.30;;;-0.20;99.90;;;;;;5034276;28;20025;-51
2022/04/20 04:20:04;;;;;;;414.10;24.98;;;-0.20;99.90;;;;;;5034178;28;20497;-51
2022/04/20 04:22:30;;;;;;;531.58;30.38;;;-0.20;99.90;;;;;;5034068;28;20052;-53
2022/04/20 04:24:59;;;;;;;598.63;34.33;;;-0.10;99.90;;;;;;5032833;28;20025;-50
2022/04/20 04:27:25;;;;;;;221.82;22.73;;;-0.10;99.90;;;;;;5033915;28;20029;-51
2022/04/20 04:29:50;;;;;;;232.00;21.60;;;0.00;99.90;;;;;;5033835;28;20032;-54
2022/04/20 04:32:16;;;;;;;517.90;31.00;;;0.10;99.90;;;;;;5032410;28;20049;-53
2022/04/20 04:34:42;;;;;;;560.25;35.65;;;0.10;99.90;;;;;;5033270;28;20034;-50
2022/04/20 04:37:13;;;;;;;101.50;18.60;;;0.20;99.90;;;;;;5033608;28;20025;-47
2022/04/20 04:39:39;;;;;;;415.95;26.20;;;0.20;99.90;;;;;;5033856;28;20029;-51
2022/04/20 04:42:05;;;;;;;679.08;41.05;;;0.30;99.90;;;;;;5033633;28;20438;-51
2022/04/20 04:44:32;;;;;;;711.65;48.35;;;0.30;99.90;;;;;;5033490;28;20025;-55
2022/04/20 04:49:42;;;;;;;350.13;27.33;;;0.20;99.90;;;;;;5033674;28;20112;-53
2022/04/20 04:52:11;;;;;;;546.92;31.95;;;0.30;99.90;;;;;;5032436;28;20113;-56
2022/04/20 04:54:41;;;;;;;327.63;25.23;;;0.20;99.90;;;;;;5033394;28;20022;-53
2022/04/20 04:57:07;;;;;;;420.52;27.13;;;0.30;99.90;;;;;;5032027;28;20092;-53
2022/04/20 04:59:35;;;;;;;199.60;22.85;;;0.30;99.90;;;;;;5033350;28;21277;-52
2022/04/20 05:02:00;;;;;;;195.98;20.55;;;0.30;99.90;;;;;;5033595;28;20094;-52
2022/04/20 05:04:26;;;;;;;200.55;21.05;;;0.30;99.90;;;;;;5031953;28;20108;-51
2022/04/20 05:06:51;;;;;;;423.80;29.60;;;0.40;99.90;;;;;;5033359;28;20168;-53
2022/04/20 05:09:17;;;;;;;134.60;19.50;;;0.30;99.90;;;;;;5032898;28;20109;-54
2022/04/20 05:11:43;;;;;;;72.18;17.80;;;0.40;99.90;;;;;;5033275;28;20113;-52
2022/04/20 05:14:09;;;;;;;75.55;19.15;;;0.60;99.90;;;;;;5032801;28;20099;-52
2022/04/20 05:16:35;;;;;;;290.45;27.35;;;0.80;99.90;;;;;;5033156;28;20025;-57
2022/04/20 05:19:01;;;;;;;700.80;48.08;;;1.00;99.90;;;;;;5033172;28;20048;-52
2022/04/20 05:21:26;;;;;;;454.90;26.38;;;1.00;99.90;;;;;;5033024;28;20037;-53
2022/04/20 05:23:54;;;;;;;516.75;28.58;;;1.00;99.90;;;;;;5032911;28;20127;-52
2022/04/20 05:26:20;;;;;;;316.60;20.55;;;0.90;99.90;;;;;;5032690;28;20094;-53
2022/04/20 05:28:46;;;;;;;296.40;23.50;;;1.00;99.90;;;;;;5032525;28;20053;-54
2022/04/20 05:31:12;;;;;;;493.17;35.10;;;1.00;99.90;;;;;;5032712;28;20110;-56
2022/04/20 05:33:37;;;;;;;383.60;25.90;;;1.00;99.90;;;;;;5032828;28;20022;-54
2022/04/20 05:36:03;;;;;;;175.10;16.95;;;1.10;99.90;;;;;;5032905;28;20645;-51
2022/04/20 05:43:57;;;;;;;126.65;13.93;;;1.40;99.90;;;;;;5032473;28;20650;-54
2022/04/20 05:46:23;;;;;;;76.82;14.15;;;1.40;99.90;;;;;;5032484;28;20060;-54
2022/04/20 05:48:48;;;;;;;81.15;14.48;;;1.40;99.90;;;;;;5032453;28;20100;-54
2022/04/20 05:51:14;;;;;;;32.58;15.10;;;1.40;99.90;;;;;;5032366;28;20564;-57
2022/04/20 05:53:40;;;;;;;59.95;13.32;;;1.60;99.90;;;;;;5032515;28;20030;-53
2022/04/20 05:56:05;;;;;;;45.63;12.60;;;1.60;99.90;;;;;;5032246;28;20036;-55
2022/04/20 05:58:31;;;;;;;242.85;19.05;;;1.70;99.90;;;;;;5032424;28;20381;-56
2022/04/20 06:00:57;;;;;;;228.63;19.83;;;1.70;99.90;;;;;;5030956;28;20033;-53
2022/04/20 06:03:22;;;;;;;168.00;16.42;;;1.60;99.90;;;;;;5031179;28;20021;-55
2022/04/20 06:05:48;;;;;;;209.48;19.83;;;1.60;99.90;;;;;;5032298;28;20108;-56
2022/04/20 06:08:14;;;;;;;164.90;19.95;;;1.60;99.90;;;;;;5031884;28;20445;-55
2022/04/20 06:10:40;;;;;;;102.45;15.02;;;1.80;99.90;;;;;;5032102;28;20075;-51
2022/04/20 06:13:06;;;;;;;20.60;14.02;;;1.90;99.90;;;;;;5031830;28;20048;-50
2022/04/20 06:15:32;;;;;;;15.45;13.13;;;1.90;99.90;;;;;;5031963;28;20045;-51
2022/04/20 06:17:58;;;;;;;15.07;12.95;;;2.00;99.90;;;;;;5031833;28;20052;-56
2022/04/20 06:20:23;;;;;;;21.40;13.65;;;2.10;99.90;;;;;;5018503;28;20037;-57
2022/04/20 06:22:49;;;;;;;15.95;13.32;;;2.20;99.90;;;;;;5018412;28;20477;-56
2022/04/20 06:25:15;;;;;;;15.07;12.82;;;2.30;99.90;;;;;;5021412;28;20037;-55
2022/04/20 06:27:40;;;;;;;14.60;12.90;;;2.40;99.90;;;;;;5022354;28;20653;-53
2022/04/20 06:30:07;;;;;;;14.07;11.50;;;2.50;99.90;;;;;;5022151;28;20033;-55
2022/04/20 06:32:32;;;;;;;14.00;12.05;;;2.50;99.90;;;;;;5022698;28;20057;-55
2022/04/20 06:34:58;;;;;;;16.30;13.05;;;2.60;99.90;;;;;;5020977;28;20072;-56
2022/04/20 06:37:24;;;;;;;16.17;13.10;;;2.80;99.90;;;;;;5021945;28;20029;-53
2022/04/20 06:39:50;;;;;;;14.30;12.27;;;2.90;99.90;;;;;;5020568;28;20547;-56
2022/04/20 06:42:18;;;;;;;14.65;12.40;;;2.90;99.90;;;;;;5019904;28;20116;-57
2022/04/20 06:44:44;;;;;;;16.35;12.98;;;3.00;99.90;;;;;;5020463;28;20044;-54
2022/04/20 06:47:09;;;;;;;15.20;12.85;;;3.10;99.90;;;;;;5020946;28;20029;-52
2022/04/20 06:49:35;;;;;;;19.30;13.48;;;3.10;99.90;;;;;;5020388;28;20708;-54
2022/04/20 07:00:18;;;;;;;15.68;12.90;;;3.40;99.90;;;;;;5020808;28;20520;-57
2022/04/20 07:02:44;;;;;;;18.17;14.65;;;3.50;99.90;;;;;;5021166;28;20108;-55
2022/04/20 07:05:10;;;;;;;18.05;14.95;;;3.70;99.90;;;;;;5020856;28;20151;-56
2022/04/20 07:07:36;;;;;;;19.52;15.52;;;3.90;99.90;;;;;;5020716;28;20112;-58
2022/04/20 07:10:03;;;;;;;18.80;15.73;;;4.00;99.90;;;;;;5020737;28;20032;-56
2022/04/20 07:12:29;;;;;;;19.20;16.00;;;4.10;99.90;;;;;;5020759;28;20071;-56
2022/04/20 07:14:54;;;;;;;17.55;15.00;;;4.30;99.90;;;;;;5020980;28;20106;-54
2022/04/20 07:17:20;;;;;;;18.63;15.05;;;4.40;99.90;;;;;;5023517;28;20489;-56
2022/04/20 07:19:46;;;;;;;16.35;14.05;;;4.50;99.90;;;;;;5024616;28;20199;-55
2022/04/20 07:22:11;;;;;;;20.55;17.95;;;4.60;99.90;;;;;;5023711;28;20063;-53
2022/04/20 07:24:37;;;;;;;19.85;16.67;;;4.80;99.90;;;;;;5024739;28;20388;-57
2022/04/20 07:27:03;;;;;;;20.23;16.20;;;4.70;99.90;;;;;;5043646;28;20506;-53
2022/04/20 07:29:28;;;;;;;21.45;16.52;;;4.80;99.90;;;;;;5033544;28;21280;-57
2022/04/20 07:31:54;;;;;;;22.98;17.83;;;4.70;99.90;;;;;;5053888;28;20029;-54
2022/04/20 07:34:20;;;;;;;21.83;17.83;;;4.70;99.90;;;;;;5054809;28;20053;-56
2022/04/20 07:36:47;;;;;;;20.40;16.40;;;4.80;99.90;;;;;;5053594;28;20025;-55
2022/04/20 07:39:13;;;;;;;20.95;16.70;;;4.80;99.90;;;;;;5054713;28;20036;-56
2022/04/20 07:41:39;;;;;;;21.58;17.33;;;4.50;99.90;;;;;;5055013;28;20029;-56
2022/04/20 07:44:05;;;;;;;21.08;17.23;;;4.40;99.90;;;;;;5053528;28;20047;-58
2022/04/20 07:46:30;;;;;;;20.88;16.45;;;4.50;99.90;;;;;;5054791;28;20021;-56
2022/04/20 07:48:56;;;;;;;21.90;16.85;;;4.70;99.90;;;;;;5054798;28;20381;-57
2022/04/20 07:51:22;;;;;;;20.58;16.52;;;4.70;99.90;;;;;;5054803;28;20476;-57
2022/04/20 07:53:47;;;;;;;21.23;15.65;;;4.70;99.90;;;;;;5054417;28;20453;-57
2022/04/20 07:56:13;;;;;;;31.65;18.42;;;4.70;99.90;;;;;;5053322;28;20550;-56
2022/04/20 07:58:39;;;;;;;20.15;17.20;;;4.70;99.90;;;;;;5054814;28;20021;-57
2022/04/20 08:01:05;;;;;;;27.08;19.15;;;4.70;99.90;;;;;;5054468;28;20091;-56
2022/04/20 08:03:31;;;;;;;27.48;20.40;;;5.00;99.90;;;;;;5054462;28;20033;-54
2022/04/20 08:05:59;;;;;;;28.45;20.98;;;5.10;99.90;;;;;;5054625;28;20036;-56
2022/04/20 08:08:25;;;;;;;23.10;18.58;;;5.10;99.90;;;;;;5054013;28;20464;-57
2022/04/20 08:10:51;;;;;;;21.35;17.63;;;5.20;99.90;;;;;;5054487;28;20113;-54
2022/04/20 08:16:01;;;;;;;20.40;17.27;;;5.30;99.90;;;;;;5054418;28;20404;-55
2022/04/20 08:18:27;;;;;;;22.73;17.15;;;5.40;99.90;;;;;;5054105;28;20017;-55
2022/04/20 08:20:53;;;;;;;21.08;16.63;;;5.40;99.90;;;;;;5054052;28;20495;-56
2022/04/20 08:23:19;;;;;;;23.85;17.90;;;5.30;99.90;;;;;;5054136;28;20083;-56
2022/04/20 08:25:46;;;;;;;19.33;15.90;;;5.40;99.90;;;;;;5054118;28;20431;-57
2022/04/20 08:28:12;;;;;;;22.35;17.38;;;5.40;99.90;;;;;;5053677;28;20087;-56
2022/04/20 08:30:39;;;;;;;23.92;17.38;;;5.80;99.90;;;;;;5054169;28;20021;-56
2022/04/20 08:33:07;;;;;;;28.80;17.10;;;5.70;99.90;;;;;;5053792;28;20021;-57
2022/04/20 08:35:34;;;;;;;26.70;18.95;;;5.90;99.90;;;;;;5053714;28;20040;-57
2022/04/20 08:38:00;;;;;;;20.40;17.27;;;5.90;99.90;;;;;;5052680;28;20082;-56
2022/04/20 08:40:27;;;;;;;20.92;15.48;;;6.10;99.90;;;;;;5053639;28;20033;-56
2022/04/20 08:42:54;;;;;;;21.35;18.70;;;6.40;99.90;;;;;;5053672;28;20033;-55
2022/04/20 08:45:20;;;;;;;15.07;13.25;;;6.70;99.90;;;;;;5048259;28;20077;-53
2022/04/20 08:47:49;;;;;;;16.73;13.23;;;6.90;99.90;;;;;;5039480;28;20064;-56
2022/04/20 08:50:14;;;;;;;19.38;15.10;;;7.10;99.90;;;;;;5042336;28;20025;-56
2022/04/20 08:52:42;;;;;;;16.23;14.07;;;6.70;99.90;;;;;;5041643;28;20028;-52
2022/04/20 08:55:13;;;;;;;17.45;15.60;;;6.60;99.90;;;;;;5042139;28;20037;-57
2022/04/20 08:57:40;;;;;;;18.02;16.08;;;6.80;99.90;;;;;;5024759;28;20095;-54
2022/04/20 09:00:09;;;;;;;21.27;16.70;;;6.80;99.90;;;;;;5023119;28;20045;-52
2022/04/20 09:02:36;;;;;;;21.17;14.25;;;7.30;99.90;;;;;;5023201;28;20096;-54
2022/04/20 09:05:03;;;;;;;16.40;13.85;;;7.40;99.90;;;;;;5023147;28;20377;-56
2022/04/20 09:07:32;;;;;;;15.52;13.57;;;7.20;99.90;;;;;;5022046;28;20028;-54
2022/04/20 09:10:00;;;;;;;18.42;15.57;;;7.60;99.90;;;;;;5022641;28;20033;-54
2022/04/20 09:12:28;;;;;;;18.85;14.80;;;7.70;99.90;;;;;;5022969;28;20034;-58
2022/04/20 09:14:56;;;;;;;14.60;12.95;;;7.80;99.90;;;;;;5022357;28;20126;-54
2022/04/20 09:17:24;;;;;;;15.85;13.00;;;8.20;99.90;;;;;;5031891;28;20025;-55
2022/04/20 09:19:55;;;;;;;17.13;13.52;;;8.20;99.90;;;;;;5032750;28;20036;-55
2022/04/20 09:22:30;;;;;;;16.60;12.95;;;8.10;99.90;;;;;;5031895;28;20361;-51
2022/04/20 09:25:00;;;;;;;14.13;12.65;;;8.10;99.90;;;;;;5033071;28;20025;-55
2022/04/20 09:27:27;;;;;;;15.75;12.85;;;7.80;99.90;;;;;;5032943;28;21828;-56
2022/04/20 09:29:54;;;;;;;14.32;12.52;;;8.10;99.90;;;;;;5032906;28;20030;-57
2022/04/20 09:32:34;;;;;;;16.08;11.60;;;8.10;99.90;;;;;;5032878;28;20025;-57
2022/04/20 09:35:05;;;;;;;14.85;13.27;;;8.20;99.90;;;;;;5032779;28;20021;-56
2022/04/20 09:37:31;;;;;;;17.58;13.10;;;8.60;99.90;;;;;;5032431;28;20159;-56
2022/04/20 09:39:57;;;;;;;14.57;12.15;;;8.70;99.90;;;;;;5032213;28;20112;-57
2022/04/20 09:42:24;;;;;;;15.50;11.20;;;9.30;99.90;;;;;;5032437;28;20025;-57
2022/04/20 09:44:59;;;;;;;14.13;10.98;;;9.80;99.90;;;;;;5032795;28;20405;-56
2022/04/20 09:50:26;;;;;;;12.32;11.02;;;9.60;99.90;;;;;;5032541;28;20068;-58
2022/04/20 09:52:58;;;;;;;12.73;11.32;;;9.60;99.90;;;;;;5032393;28;20021;-57
2022/04/20 09:55:36;;;;;;;11.77;10.57;;;9.90;99.90;;;;;;5032434;28;20392;-57
2022/04/20 09:58:18;;;;;;;11.80;9.93;;;10.30;99.90;;;;;;5032288;28;20025;-56
2022/04/20 10:00:52;;;;;;;11.00;9.82;;;10.20;99.90;;;;;;5032418;28;20049;-55
2022/04/20 10:03:28;;;;;;;10.48;9.38;;;10.80;99.90;;;;;;5032220;28;20036;-54
2022/04/20 10:05:56;;;;;;;9.98;8.52;;;10.70;98.30;;;;;;5032254;28;20049;-55
2022/04/20 10:08:23;;;;;;;10.20;9.20;;;10.70;97.80;;;;;;5032166;28;20056;-55
2022/04/20 10:10:52;;;;;;;11.05;9.93;;;10.80;98.80;;;;;;5032232;28;20028;-55
2022/04/20 10:13:18;;;;;;;17.95;12.43;;;11.10;99.10;;;;;;5032083;28;20021;-54
2022/04/20 10:18:31;;;;;;;10.70;9.10;;;11.70;99.40;;;;;;5032237;28;20088;-57
2022/04/20 10:21:02;;;;;;;11.43;9.57;;;11.80;98.30;;;;;;5032173;28;20116;-57
2022/04/20 10:23:31;;;;;;;10.13;8.98;;;11.60;97.30;;;;;;5030592;28;20079;-57
2022/04/20 10:25:59;;;;;;;13.07;7.75;;;11.50;95.40;;;;;;5031928;28;20055;-54
2022/04/20 10:28:31;;;;;;;9.25;8.07;;;11.80;93.60;;;;;;5031812;28;20030;-53
2022/04/20 10:31:11;;;;;;;9.55;7.82;;;11.90;94.90;;;;;;5031831;28;20071;-55
2022/04/20 10:33:41;;;;;;;10.98;8.50;;;11.90;95.00;;;;;;5031807;28;20033;-56
2022/04/20 10:36:11;;;;;;;17.80;13.27;;;12.00;94.40;;;;;;5031797;28;20026;-55
2022/04/20 10:38:38;;;;;;;24.58;15.02;;;11.50;92.80;;;;;;5031727;28;20025;-56
2022/04/20 10:41:12;;;;;;;14.32;10.65;;;12.00;95.30;;;;;;5031853;28;20091;-55
2022/04/20 10:43:42;;;;;;;19.98;16.48;;;11.80;93.90;;;;;;5031718;28;20026;-57
2022/04/20 10:46:20;;;;;;;10.15;8.57;;;12.10;93.20;;;;;;5031640;28;20037;-56
2022/04/20 10:49:07;;;;;;;9.20;8.30;;;11.90;93.80;;;;;;5031544;28;20038;-57
2022/04/20 10:51:39;;;;;;;14.75;9.20;;;12.20;92.20;;;;;;5031652;28;20009;-58
2022/04/20 10:54:29;;;;;;;10.85;9.23;;;12.30;92.20;;;;;;5031283;28;20434;-58
2022/04/20 10:57:00;;;;;;;9.98;8.10;;;12.70;93.20;;;;;;5031487;28;20025;-57
2022/04/20 10:59:27;;;;;;;11.13;8.23;;;12.90;93.60;;;;;;5030654;28;20354;-57
2022/04/20 11:02:02;;;;;;;8.23;7.43;;;13.00;91.90;;;;;;5031004;28;20025;-57
2022/04/20 11:04:48;;;;;;;9.95;7.60;;;12.80;91.40;;;;;;5031011;28;20022;-54
2022/04/20 11:07:18;;;;;;;8.60;7.25;;;12.70;91.30;;;;;;5031187;28;20056;-57
2022/04/20 11:09:50;;;;;;;7.78;6.75;;;12.80;90.80;;;;;;5031033;28;20116;-54
2022/04/20 11:18:38;;;;;;;8.77;7.88;;;13.20;88.70;;;;;;5031078;28;20039;-56
2022/04/20 11:21:05;;;;;;;8.30;7.50;;;13.20;89.70;;;;;;5031232;28;20021;-57
2022/04/20 11:23:49;;;;;;;8.55;7.75;;;13.60;91.90;;;;;;5031038;28;20060;-55
2022/04/20 11:26:29;;;;;;;9.18;8.27;;;13.60;89.40;;;;;;5031189;28;20029;-58
2022/04/20 11:29:01;;;;;;;8.52;7.72;;;13.40;91.90;;;;;;5030993;28;20025;-56
2022/04/20 11:31:33;;;;;;;8.60;7.70;;;14.10;89.30;;;;;;5030745;28;20120;-58
2022/04/20 11:33:59;;;;;;;8.57;7.38;;;14.30;81.40;;;;;;5030866;28;20025;-57
2022/04/20 11:36:25;;;;;;;8.38;7.57;;;15.10;78.70;;;;;;5030898;28;20033;-56
2022/04/20 11:38:51;;;;;;;9.13;6.65;;;15.80;74.90;;;;;;5030936;28;20037;-59
2022/04/20 11:41:19;;;;;;;10.60;7.25;;;16.40;67.80;;;;;;5030815;28;20393;-57
2022/04/20 11:43:45;;;;;;;6.50;5.75;;;17.10;66.40;;;;;;5030434;28;20115;-57
2022/04/20 11:46:11;;;;;;;7.18;6.47;;;17.20;63.60;;;;;;5029674;28;20026;-54
2022/04/20 11:48:38;;;;;;;9.88;7.50;;;17.50;58.90;;;;;;5029669;28;20026;-54
2022/04/20 11:51:08;;;;;;;7.07;6.38;;;17.70;59.20;;;;;;5029827;28;20470;-58
2022/04/20 11:53:40;;;;;;;9.23;6.18;;;18.50;57.90;;;;;;5029613;28;20358;-59
2022/04/20 11:56:07;;;;;;;7.00;5.75;;;19.10;56.60;;;;;;5030598;28;20028;-56
2022/04/20 11:58:33;;;;;;;6.97;6.28;;;19.20;53.90;;;;;;5030188;28;20468;-59
2022/04/20 12:01:01;;;;;;;9.13;6.10;;;18.60;53.50;;;;;;5030194;28;20034;-59
2022/04/20 12:03:41;;;;;;;6.75;6.05;;;18.10;57.50;;;;;;5033553;28;20030;-59
2022/04/20 12:06:09;;;;;;;6.22;5.63;;;18.10;58.60;;;;;;5033799;28;20574;-58
2022/04/20 12:08:38;;;;;;;4.93;4.45;;;19.40;52.10;;;;;;5033891;28;20108;-56
2022/04/20 12:11:06;;;;;;;6.68;5.60;;;19.60;50.60;;;;;;5034296;28;20021;-56
2022/04/20 12:13:32;;;;;;;7.22;5.03;;;20.00;49.30;;;;;;5034226;28;20029;-58
2022/04/20 12:16:14;;;;;;;5.60;5.03;;;20.40;48.40;;;;;;5033923;28;20054;-59
2022/04/20 12:18:43;;;;;;;8.90;5.25;;;21.20;49.00;;;;;;5034262;28;20025;-59
2022/04/20 12:21:57;;;;;;;7.32;4.68;;;20.60;44.10;;;;;;5032945;28;20514;-59
2022/04/20 12:24:27;;;;;;;6.22;5.00;;;20.60;47.40;;;;;;5033239;28;20038;-59
2022/04/20 12:26:57;;;;;;;4.53;4.13;;;20.40;47.10;;;;;;5034092;28;20025;-59
2022/04/20 12:29:29;;;;;;;4.68;4.28;;;20.70;44.10;;;;;;5033905;28;20060;-59
2022/04/20 12:31:55;;;;;;;5.32;4.88;;;20.60;43.50;;;;;;5033753;28;20013;-59
2022/04/20 12:34:25;;;;;;;6.07;4.50;;;21.30;46.10;;;;;;5034008;28;20030;-59
2022/04/20 12:36:59;;;;;;;4.47;4.07;;;21.30;43.50;;;;;;5033966;28;20461;-59
2022/04/20 12:39:34;;;;;;;4.70;4.25;;;21.40;43.20;;;;;;5033779;28;20033;-59
2022/04/20 12:42:13;;;;;;;4.32;3.92;;;21.20;41.50;;;;;;5033821;28;20357;-59
2022/04/20 12:45:02;;;;;;;5.28;4.68;;;21.60;44.10;;;;;;5033860;28;20037;-59
2022/04/20 12:47:28;;;;;;;5.20;4.78;;;22.00;42.10;;;;;;5033696;28;20649;-59
2022/04/20 12:49:59;;;;;;;4.22;3.83;;;22.30;39.10;;;;;;5033462;28;20068;-59
2022/04/20 12:52:27;;;;;;;5.82;4.03;;;22.20;40.00;;;;;;5033605;28;20037;-59
2022/04/20 12:54:56;;;;;;;3.90;3.60;;;22.60;40.10;;;;;;5033695;28;20063;-59
2022/04/20 13:03:02;;;;;;;3.50;3.20;;;22.50;37.90;;;;;;5033451;28;20117;-59
2022/04/20 13:05:28;;;;;;;5.05;3.95;;;22.00;38.60;;;;;;5033547;28;20397;-59
2022/04/20 13:07:53;;;;;;;5.85;3.88;;;22.00;40.20;;;;;;5033523;28;20039;-59
2022/04/20 13:10:19;;;;;;;5.88;3.38;;;22.30;37.10;;;;;;5033290;28;20415;-59
2022/04/20 13:12:52;;;;;;;3.72;3.42;;;22.80;38.90;;;;;;5033009;28;20029;-59
2022/04/20 13:15:19;;;;;;;3.65;2.67;;;22.70;37.90;;;;;;5032436;28;20045;-59
2022/04/20 13:17:45;;;;;;;3.38;3.08;;;22.60;35.50;;;;;;5033442;28;20534;-59